createdAt,value
2018-12-30T00:00:54.703Z,8.00
2018-12-30T00:03:24.077Z,7.90
2018-12-30T00:05:53.847Z,7.90
2018-12-30T00:08:23.730Z,7.80
2018-12-30T00:10:53.683Z,7.70
2018-12-30T00:13:23.442Z,7.60
2018-12-30T00:15:52.970Z,7.60
2018-12-30T00:18:22.743Z,7.60
2018-12-30T00:20:52.526Z,7.60
2018-12-30T00:23:23.400Z,7.50
2018-12-30T00:25:53.022Z,7.50
2018-12-30T00:28:22.540Z,7.50
2018-12-30T00:30:59.622Z,7.50
2018-12-30T00:33:30.062Z,7.50
2018-12-30T00:36:09.850Z,7.40
2018-12-30T00:38:40.016Z,7.40
2018-12-30T00:41:09.442Z,7.40
2018-12-30T00:43:39.150Z,7.40
2018-12-30T00:46:08.661Z,7.40
2018-12-30T00:48:38.266Z,7.40
2018-12-30T00:51:07.634Z,7.40
2018-12-30T00:53:48.498Z,7.40
2018-12-30T00:56:18.626Z,7.40
2018-12-30T00:58:48.080Z,7.40
2018-12-30T01:01:17.548Z,7.40
2018-12-30T01:03:47.214Z,7.50
2018-12-30T01:06:16.870Z,7.50
2018-12-30T01:08:48.644Z,7.50
2018-12-30T01:11:18.560Z,7.50
2018-12-30T01:13:48.372Z,7.50
2018-12-30T01:16:18.187Z,7.60
2018-12-30T01:19:25.070Z,7.60
2018-12-30T01:21:54.357Z,7.60
2018-12-30T01:24:23.817Z,7.70
2018-12-30T01:26:53.250Z,7.70
2018-12-30T01:29:33.886Z,7.70
2018-12-30T01:32:03.370Z,7.70
2018-12-30T01:34:32.980Z,7.70
2018-12-30T01:37:02.549Z,7.70
2018-12-30T01:39:32.467Z,7.70
2018-12-30T01:42:01.993Z,7.70
2018-12-30T01:44:33.433Z,7.70
2018-12-30T01:47:02.866Z,7.70
2018-12-30T01:49:32.521Z,7.70
2018-12-30T01:52:02.155Z,7.80
2018-12-30T01:54:31.460Z,7.80
2018-12-30T01:57:01.141Z,7.80
2018-12-30T01:59:30.877Z,7.80
2018-12-30T02:02:00.585Z,7.80
2018-12-30T02:04:30.593Z,7.80
2018-12-30T02:07:00.066Z,7.70
2018-12-30T02:09:29.690Z,7.70
2018-12-30T02:11:59.499Z,7.80
2018-12-30T02:14:29.215Z,7.80
2018-12-30T02:16:58.995Z,7.80
2018-12-30T02:19:28.350Z,7.80
2018-12-30T02:21:57.749Z,7.80
2018-12-30T02:24:28.541Z,7.80
2018-12-30T02:26:57.937Z,7.80
2018-12-30T02:29:27.554Z,7.90
2018-12-30T02:31:57.002Z,7.90
2018-12-30T02:34:26.309Z,7.90
2018-12-30T02:36:55.740Z,7.90
2018-12-30T02:39:25.829Z,7.90
2018-12-30T02:41:55.265Z,7.90
2018-12-30T02:44:24.919Z,7.90
2018-12-30T02:46:54.635Z,7.90
2018-12-30T02:49:24.615Z,7.90
2018-12-30T02:51:54.342Z,7.90
2018-12-30T02:54:23.793Z,7.90
2018-12-30T02:56:53.339Z,7.90
2018-12-30T02:59:23.055Z,7.90
2018-12-30T03:01:52.904Z,7.90
2018-12-30T03:04:22.285Z,7.90
2018-12-30T03:06:51.858Z,7.90
2018-12-30T03:09:21.213Z,7.90
2018-12-30T03:11:50.684Z,7.90
2018-12-30T03:14:20.343Z,7.90
2018-12-30T03:16:49.936Z,8.00
2018-12-30T03:19:20.359Z,8.00
2018-12-30T03:21:58.949Z,7.90
2018-12-30T03:24:22.198Z,7.90
2018-12-30T03:26:51.743Z,7.90
2018-12-30T03:29:21.159Z,7.90
2018-12-30T03:31:50.669Z,7.80
2018-12-30T03:34:20.150Z,7.80
2018-12-30T03:36:49.519Z,7.80
2018-12-30T03:39:19.046Z,7.80
2018-12-30T03:41:48.571Z,7.80
2018-12-30T03:44:18.150Z,7.70
2018-12-30T03:46:47.669Z,7.80
2018-12-30T03:49:17.270Z,7.70
2018-12-30T03:51:46.767Z,7.80
2018-12-30T03:54:16.532Z,7.80
2018-12-30T03:56:46.016Z,7.80
2018-12-30T03:59:15.670Z,7.80
2018-12-30T04:01:45.539Z,7.80
2018-12-30T04:04:15.129Z,7.80
2018-12-30T04:06:44.701Z,7.80
2018-12-30T04:09:14.111Z,7.80
2018-12-30T04:11:43.820Z,7.80
2018-12-30T04:14:13.511Z,7.80
2018-12-30T04:16:45.361Z,7.80
2018-12-30T04:19:14.688Z,7.70
2018-12-30T04:21:44.179Z,7.70
2018-12-30T04:24:13.706Z,7.70
2018-12-30T04:26:43.151Z,7.80
2018-12-30T04:29:12.530Z,7.80
2018-12-30T04:31:41.982Z,7.80
2018-12-30T04:34:13.241Z,7.80
2018-12-30T04:36:43.076Z,7.70
2018-12-30T04:39:12.482Z,7.70
2018-12-30T04:41:41.862Z,7.70
2018-12-30T04:44:11.606Z,7.70
2018-12-30T04:46:41.373Z,7.70
2018-12-30T04:49:10.964Z,7.80
2018-12-30T04:51:40.536Z,7.80
2018-12-30T04:54:10.228Z,7.80
2018-12-30T04:56:39.950Z,7.80
2018-12-30T04:59:09.712Z,7.80
2018-12-30T05:01:39.110Z,7.80
2018-12-30T05:04:08.870Z,7.90
2018-12-30T05:06:38.562Z,7.90
2018-12-30T05:09:09.059Z,7.90
2018-12-30T05:11:38.982Z,7.90
2018-12-30T05:14:08.652Z,7.90
2018-12-30T05:16:38.281Z,8.00
2018-12-30T05:19:08.010Z,8.00
2018-12-30T05:21:37.562Z,8.00
2018-12-30T05:24:13.158Z,8.00
2018-12-30T05:26:42.798Z,8.10
2018-12-30T05:29:12.298Z,8.10
2018-12-30T05:31:41.860Z,8.10
2018-12-30T05:34:11.626Z,8.10
2018-12-30T05:36:41.039Z,8.20
2018-12-30T05:39:10.462Z,8.20
2018-12-30T05:41:40.218Z,8.20
2018-12-30T05:44:10.690Z,8.20
2018-12-30T05:46:40.410Z,8.20
2018-12-30T05:49:11.468Z,8.30
2018-12-30T05:51:41.148Z,8.30
2018-12-30T05:54:11.240Z,8.30
2018-12-30T05:56:41.189Z,8.30
2018-12-30T05:59:12.785Z,8.40
2018-12-30T06:01:42.574Z,8.30
2018-12-30T06:04:12.455Z,8.40
2018-12-30T06:06:41.969Z,8.40
2018-12-30T06:09:11.621Z,8.40
2018-12-30T06:11:41.207Z,8.50
2018-12-30T06:14:11.071Z,8.50
2018-12-30T06:16:40.531Z,8.50
2018-12-30T06:19:09.959Z,8.50
2018-12-30T06:21:39.404Z,8.50
2018-12-30T06:24:08.979Z,8.50
2018-12-30T06:26:38.712Z,8.50
2018-12-30T06:29:08.125Z,8.50
2018-12-30T06:31:37.683Z,8.50
2018-12-30T06:34:07.251Z,8.40
2018-12-30T06:36:36.775Z,8.40
2018-12-30T06:39:07.447Z,8.30
2018-12-30T06:41:36.853Z,8.30
2018-12-30T06:44:06.555Z,8.20
2018-12-30T06:46:36.414Z,8.10
2018-12-30T06:49:05.877Z,8.10
2018-12-30T06:51:35.361Z,8.10
2018-12-30T06:54:05.084Z,8.00
2018-12-30T06:56:34.951Z,8.00
2018-12-30T06:59:04.747Z,8.00
2018-12-30T07:01:34.218Z,7.90
2018-12-30T07:04:03.741Z,7.90
2018-12-30T07:06:33.419Z,7.90
2018-12-30T07:09:02.955Z,7.90
2018-12-30T07:11:32.703Z,7.90
2018-12-30T07:14:02.353Z,7.90
2018-12-30T07:16:32.393Z,7.80
2018-12-30T07:19:02.228Z,7.80
2018-12-30T07:21:31.645Z,7.80
2018-12-30T07:24:01.463Z,7.80
2018-12-30T07:26:34.333Z,7.80
2018-12-30T07:29:03.957Z,7.80
2018-12-30T07:31:33.779Z,7.70
2018-12-30T07:34:03.197Z,7.70
2018-12-30T07:36:33.187Z,7.70
2018-12-30T07:39:02.837Z,7.70
2018-12-30T07:41:32.410Z,7.70
2018-12-30T07:44:01.938Z,7.70
2018-12-30T07:46:31.633Z,7.70
2018-12-30T07:49:01.213Z,7.70
2018-12-30T07:51:31.351Z,7.70
2018-12-30T07:54:00.869Z,7.70
2018-12-30T07:56:30.393Z,7.70
2018-12-30T07:58:59.798Z,7.70
2018-12-30T08:01:29.477Z,7.70
2018-12-30T08:03:58.993Z,7.70
2018-12-30T08:06:28.451Z,7.70
2018-12-30T08:08:58.128Z,7.70
2018-12-30T08:11:27.581Z,7.70
2018-12-30T08:13:57.229Z,7.70
2018-12-30T08:16:26.816Z,7.80
2018-12-30T08:19:05.741Z,7.80
2018-12-30T08:21:35.459Z,7.80
2018-12-30T08:24:05.221Z,7.80
2018-12-30T08:26:35.436Z,7.80
2018-12-30T08:29:04.943Z,7.80
2018-12-30T08:31:34.663Z,7.80
2018-12-30T08:34:04.568Z,7.80
2018-12-30T08:36:34.343Z,7.80
2018-12-30T08:39:06.309Z,7.80
2018-12-30T08:41:35.614Z,7.80
2018-12-30T08:44:05.066Z,7.80
2018-12-30T08:46:34.633Z,7.70
2018-12-30T08:49:03.970Z,7.70
2018-12-30T08:51:33.344Z,7.70
2018-12-30T08:54:02.921Z,7.70
2018-12-30T08:56:32.374Z,7.70
2018-12-30T08:59:01.905Z,7.80
2018-12-30T09:01:31.362Z,7.80
2018-12-30T09:04:00.996Z,7.80
2018-12-30T09:06:30.503Z,7.80
2018-12-30T09:09:00.524Z,7.80
2018-12-30T09:11:30.080Z,7.80
2018-12-30T09:14:00.814Z,7.80
2018-12-30T09:16:30.549Z,7.80
2018-12-30T09:19:10.471Z,7.90
2018-12-30T09:21:45.989Z,7.90
2018-12-30T09:24:23.833Z,7.90
2018-12-30T09:26:54.392Z,7.80
2018-12-30T09:29:24.158Z,7.80
2018-12-30T09:31:54.020Z,7.80
2018-12-30T09:34:23.546Z,7.80
2018-12-30T09:36:53.446Z,7.80
2018-12-30T09:39:23.104Z,7.80
2018-12-30T09:41:52.580Z,7.80
2018-12-30T09:44:22.347Z,7.80
2018-12-30T09:46:51.775Z,7.80
2018-12-30T09:49:21.342Z,7.80
2018-12-30T09:51:50.825Z,7.80
2018-12-30T09:54:30.716Z,7.80
2018-12-30T09:57:00.395Z,7.80
2018-12-30T09:59:29.966Z,7.80
2018-12-30T10:01:59.425Z,7.80
2018-12-30T10:04:29.034Z,7.90
2018-12-30T10:07:04.462Z,7.90
2018-12-30T10:09:47.551Z,7.90
2018-12-30T10:12:17.248Z,7.90
2018-12-30T10:14:46.895Z,8.00
2018-12-30T10:17:17.756Z,8.00
2018-12-30T10:19:47.516Z,8.00
2018-12-30T10:22:17.176Z,8.00
2018-12-30T10:24:46.909Z,8.00
2018-12-30T10:27:35.242Z,8.10
2018-12-30T10:30:14.102Z,8.10
2018-12-30T10:32:47.564Z,8.10
2018-12-30T10:35:17.260Z,8.10
2018-12-30T10:37:46.830Z,8.10
2018-12-30T10:40:16.366Z,8.20
2018-12-30T10:42:46.054Z,8.20
2018-12-30T10:45:15.564Z,8.20
2018-12-30T10:47:44.897Z,8.20
2018-12-30T10:50:14.540Z,8.20
2018-12-30T10:52:43.917Z,8.20
2018-12-30T10:55:13.409Z,8.30
2018-12-30T10:57:43.074Z,8.30
2018-12-30T11:00:20.492Z,8.40
2018-12-30T11:02:49.930Z,8.40
2018-12-30T11:05:19.374Z,8.50
2018-12-30T11:07:48.821Z,8.50
2018-12-30T11:10:18.182Z,8.50
2018-12-30T11:12:47.580Z,8.50
2018-12-30T11:15:17.042Z,8.50
2018-12-30T11:17:46.500Z,8.50
2018-12-30T11:20:16.022Z,8.60
2018-12-30T11:22:45.600Z,8.60
2018-12-30T11:25:15.207Z,8.60
2018-12-30T11:27:44.890Z,8.60
2018-12-30T11:30:14.451Z,8.60
2018-12-30T11:32:44.038Z,8.70
2018-12-30T11:35:15.077Z,8.60
2018-12-30T11:37:44.607Z,8.70
2018-12-30T11:40:14.485Z,8.70
2018-12-30T11:42:46.430Z,8.70
2018-12-30T11:45:15.959Z,8.70
2018-12-30T11:47:45.540Z,8.70
2018-12-30T11:50:15.199Z,8.80
2018-12-30T11:52:44.755Z,8.90
2018-12-30T11:55:14.359Z,8.90
2018-12-30T11:57:43.975Z,9.00
2018-12-30T12:00:13.418Z,9.00
2018-12-30T12:02:42.800Z,9.10
2018-12-30T12:05:12.290Z,9.20
2018-12-30T12:07:42.713Z,9.30
2018-12-30T12:10:12.142Z,9.30
2018-12-30T12:12:48.628Z,9.40
2018-12-30T12:15:32.106Z,9.40
2018-12-30T12:18:02.573Z,9.40
2018-12-30T12:20:32.173Z,9.40
2018-12-30T12:23:07.637Z,9.40
2018-12-30T12:25:37.060Z,9.40
2018-12-30T12:28:07.174Z,9.40
2018-12-30T12:30:37.068Z,9.30
2018-12-30T12:33:07.345Z,9.30
2018-12-30T12:35:36.813Z,9.40
2018-12-30T12:38:06.585Z,9.40
2018-12-30T12:40:36.390Z,9.40
2018-12-30T12:43:06.122Z,9.40
2018-12-30T12:46:03.697Z,9.40
2018-12-30T12:48:33.335Z,9.40
2018-12-30T12:51:02.894Z,9.40
2018-12-30T12:53:32.456Z,9.40
2018-12-30T12:56:01.990Z,9.40
2018-12-30T12:58:31.635Z,9.40
2018-12-30T13:01:08.937Z,9.50
2018-12-30T13:03:38.413Z,9.50
2018-12-30T13:06:07.773Z,9.50
2018-12-30T13:08:37.249Z,9.50
2018-12-30T13:11:06.659Z,9.60
2018-12-30T13:13:36.019Z,9.60
2018-12-30T13:16:05.517Z,9.60
2018-12-30T13:18:35.053Z,9.70
2018-12-30T13:21:04.477Z,9.70
2018-12-30T13:23:34.166Z,9.80
2018-12-30T13:26:03.877Z,9.80
2018-12-30T13:28:33.329Z,9.80
2018-12-30T13:31:02.759Z,9.80
2018-12-30T13:33:34.394Z,9.90
2018-12-30T13:36:04.509Z,9.80
2018-12-30T13:38:34.117Z,9.80
2018-12-30T13:41:04.077Z,9.70
2018-12-30T13:43:33.593Z,9.80
2018-12-30T13:46:09.107Z,9.80
2018-12-30T13:48:38.757Z,9.80
2018-12-30T13:51:08.331Z,9.80
2018-12-30T13:53:37.744Z,9.80
2018-12-30T13:56:16.013Z,9.90
2018-12-30T13:58:46.184Z,9.90
2018-12-30T14:01:16.239Z,9.90
2018-12-30T14:03:45.681Z,9.80
2018-12-30T14:06:15.021Z,9.80
2018-12-30T14:08:44.510Z,9.80
2018-12-30T14:11:13.837Z,9.70
2018-12-30T14:13:44.017Z,9.70
2018-12-30T14:16:13.359Z,9.60
2018-12-30T14:18:42.814Z,9.60
2018-12-30T14:21:12.281Z,9.60
2018-12-30T14:23:41.786Z,9.60
2018-12-30T14:26:11.213Z,9.60
2018-12-30T14:28:40.585Z,9.50
2018-12-30T14:31:10.065Z,9.60
2018-12-30T14:33:39.352Z,9.50
2018-12-30T14:36:36.061Z,9.50
2018-12-30T14:39:15.479Z,9.50
2018-12-30T14:41:52.945Z,9.40
2018-12-30T14:44:22.246Z,9.40
2018-12-30T14:46:55.269Z,9.40
2018-12-30T14:49:24.735Z,9.40
2018-12-30T14:52:00.085Z,9.40
2018-12-30T14:54:29.505Z,9.30
2018-12-30T14:56:59.027Z,9.30
2018-12-30T14:59:30.671Z,9.30
2018-12-30T15:01:59.998Z,9.20
2018-12-30T15:04:29.376Z,9.20
2018-12-30T15:06:58.737Z,9.20
2018-12-30T15:09:35.455Z,9.30
2018-12-30T15:11:59.400Z,9.30
2018-12-30T15:14:28.825Z,9.30
2018-12-30T15:16:59.470Z,9.30
2018-12-30T15:19:29.180Z,9.30
2018-12-30T15:21:58.643Z,9.20
2018-12-30T15:24:35.129Z,9.20
2018-12-30T15:27:04.417Z,9.20
2018-12-30T19:31:56.279Z,8.80
2018-12-30T19:34:29.649Z,8.80
2018-12-30T19:36:59.025Z,8.80
2018-12-30T19:39:36.521Z,8.80
2018-12-30T19:42:06.051Z,8.80
2018-12-30T19:44:54.497Z,8.70
2018-12-30T19:47:23.873Z,8.70
2018-12-30T19:49:53.117Z,8.70
2018-12-30T19:52:22.472Z,8.70
2018-12-30T19:54:54.965Z,8.70
2018-12-30T19:57:24.271Z,8.70
2018-12-30T19:59:53.696Z,8.70
2018-12-30T20:02:23.138Z,8.70
2018-12-30T20:04:52.491Z,8.70
2018-12-30T20:07:21.979Z,8.70
2018-12-30T20:09:51.347Z,8.70
2018-12-30T20:12:20.672Z,8.70
2018-12-30T20:14:49.907Z,8.70
2018-12-30T20:20:47.578Z,8.70
2018-12-30T20:23:19.045Z,8.80
2018-12-30T20:25:48.564Z,8.70
2018-12-30T20:28:17.877Z,8.70
2018-12-30T20:30:47.280Z,8.70
2018-12-30T20:33:16.629Z,8.70
2018-12-30T20:35:48.081Z,8.70
2018-12-30T20:38:17.386Z,8.60
2018-12-30T20:40:57.985Z,8.70
2018-12-30T20:43:27.387Z,8.70
2018-12-30T20:45:56.890Z,8.70
2018-12-30T20:48:27.357Z,8.60
2018-12-30T20:50:57.088Z,8.70
2018-12-30T20:53:26.380Z,8.70
2018-12-30T20:55:55.643Z,8.70
2018-12-30T20:58:24.993Z,8.70
2018-12-30T21:00:54.194Z,8.70
2018-12-30T21:03:23.526Z,8.70
2018-12-30T21:05:52.900Z,8.70
2018-12-30T21:08:22.261Z,8.70
2018-12-30T21:10:51.747Z,8.70
2018-12-30T21:13:26.920Z,8.70
2018-12-30T21:15:57.427Z,8.60
2018-12-30T21:18:26.857Z,8.60
2018-12-30T21:20:57.710Z,8.50
2018-12-30T21:23:27.172Z,8.50
2018-12-30T21:25:56.434Z,8.50
2018-12-30T21:28:25.906Z,8.40
2018-12-30T21:30:55.286Z,8.40
2018-12-30T21:33:24.579Z,8.30
2018-12-30T21:35:53.885Z,8.20
2018-12-30T21:38:23.361Z,8.20
2018-12-30T21:40:52.675Z,8.00
2018-12-30T21:43:22.030Z,8.00
2018-12-30T21:45:53.565Z,7.90
2018-12-30T21:48:22.853Z,7.80
2018-12-30T21:50:52.226Z,7.80
2018-12-30T21:53:21.514Z,7.70
2018-12-30T21:55:51.012Z,7.70
2018-12-30T21:58:20.372Z,7.70
2018-12-30T22:00:50.201Z,7.70
2018-12-30T22:03:20.958Z,7.60
2018-12-30T22:05:50.493Z,7.60
2018-12-30T22:08:19.828Z,7.60
2018-12-30T22:10:49.116Z,7.60
2018-12-30T22:13:18.477Z,7.60
2018-12-30T22:15:47.881Z,7.70
2018-12-30T22:18:17.256Z,7.70
2018-12-30T22:20:46.569Z,7.70
2018-12-30T22:23:15.798Z,7.80
2018-12-30T22:25:45.140Z,7.80
2018-12-30T22:28:14.440Z,7.80
2018-12-30T22:30:43.643Z,7.80
2018-12-30T22:33:12.949Z,7.80
2018-12-30T22:35:42.306Z,7.80
2018-12-30T22:38:11.709Z,7.80
2018-12-30T22:40:41.103Z,7.80
2018-12-30T22:43:10.556Z,7.90
2018-12-30T22:45:46.029Z,7.80
2018-12-30T22:48:15.338Z,7.80
2018-12-30T22:50:44.835Z,7.80
2018-12-30T22:53:14.244Z,7.70
2018-12-30T22:55:43.642Z,7.70
2018-12-30T22:58:18.887Z,7.70
2018-12-30T23:01:00.416Z,7.70
2018-12-30T23:03:29.776Z,7.70
2018-12-30T23:05:59.109Z,7.70
2018-12-30T23:08:28.446Z,7.60
2018-12-30T23:10:57.820Z,7.60
2018-12-30T23:13:27.115Z,7.60
2018-12-30T23:15:56.416Z,7.50
2018-12-30T23:18:25.622Z,7.50
2018-12-30T23:20:54.945Z,7.40
2018-12-30T23:23:27.479Z,7.40
2018-12-30T23:25:56.968Z,7.50
2018-12-30T23:28:26.343Z,7.50
2018-12-30T23:31:04.524Z,7.50
2018-12-30T23:33:34.104Z,7.50
2018-12-30T23:36:12.401Z,7.60
2018-12-30T23:38:41.676Z,7.60
2018-12-30T23:41:12.230Z,7.50
2018-12-30T23:43:41.909Z,7.50
2018-12-30T23:46:11.574Z,7.50
2018-12-30T23:48:41.186Z,7.40
2018-12-30T23:51:10.534Z,7.40
2018-12-30T23:53:40.065Z,7.40
2018-12-30T23:56:09.524Z,7.40
2018-12-30T23:58:38.986Z,7.40
